createdAt,value
2023-05-05T00:00:45.241Z,25.82
2023-05-05T00:01:45.253Z,25.81
2023-05-05T00:02:45.339Z,25.86
2023-05-05T00:03:45.339Z,25.84
2023-05-05T00:04:45.239Z,25.90
2023-05-05T00:05:45.256Z,25.86
2023-05-05T00:06:45.249Z,25.94
2023-05-05T00:07:45.261Z,25.86
2023-05-05T00:08:45.266Z,25.92
2023-05-05T00:09:45.284Z,25.92
2023-05-05T00:10:45.302Z,25.90
2023-05-05T00:11:45.288Z,25.91
2023-05-05T00:12:45.322Z,25.93
2023-05-05T00:13:45.299Z,25.93
2023-05-05T00:14:45.300Z,25.98
2023-05-05T00:15:45.308Z,25.99
2023-05-05T00:16:45.342Z,25.98
2023-05-05T00:17:45.384Z,25.95
2023-05-05T00:18:45.345Z,25.98
2023-05-05T00:19:45.358Z,25.98
2023-05-05T00:20:45.385Z,25.95
2023-05-05T00:21:45.360Z,26.01
2023-05-05T00:22:45.388Z,26.00
2023-05-05T00:23:45.371Z,26.03
2023-05-05T00:24:45.388Z,25.97
2023-05-05T00:25:45.420Z,26.03
2023-05-05T00:26:45.406Z,26.00
2023-05-05T00:27:45.419Z,26.04
2023-05-05T00:28:45.425Z,26.09
2023-05-05T00:29:45.427Z,26.04
2023-05-05T00:30:45.477Z,26.02
2023-05-05T00:31:45.476Z,26.05
2023-05-05T00:32:45.546Z,26.05
2023-05-05T00:33:45.491Z,26.09
2023-05-05T00:34:45.481Z,26.05
2023-05-05T00:35:45.499Z,26.01
2023-05-05T00:36:45.508Z,26.07
2023-05-05T00:37:45.529Z,26.05
2023-05-05T00:38:45.553Z,26.09
2023-05-05T00:39:45.554Z,26.08
2023-05-05T00:40:45.586Z,26.08
2023-05-05T00:41:45.566Z,26.08
2023-05-05T00:42:45.581Z,26.01
2023-05-05T00:43:45.600Z,26.05
2023-05-05T00:44:45.596Z,26.09
2023-05-05T00:45:45.587Z,26.07
2023-05-05T00:46:45.688Z,25.98
2023-05-05T00:47:45.658Z,26.06
2023-05-05T00:48:45.648Z,26.04
2023-05-05T00:49:45.635Z,26.01
2023-05-05T00:50:45.646Z,26.02
2023-05-05T00:51:45.646Z,26.02
2023-05-05T00:52:45.655Z,25.99
2023-05-05T00:53:45.655Z,26.00
2023-05-05T00:54:45.662Z,26.04
2023-05-05T00:55:45.673Z,26.00
2023-05-05T00:56:45.691Z,26.01
2023-05-05T00:57:45.679Z,25.99
2023-05-05T00:58:45.703Z,26.02
2023-05-05T00:59:45.673Z,26.01
2023-05-05T01:00:45.698Z,25.99
2023-05-05T01:01:45.720Z,25.96
2023-05-05T01:02:45.791Z,25.98
2023-05-05T01:03:45.804Z,25.97
2023-05-05T01:04:45.693Z,25.94
2023-05-05T01:05:45.674Z,25.87
2023-05-05T01:06:45.696Z,25.91
2023-05-05T01:07:45.696Z,25.94
2023-05-05T01:08:45.682Z,25.97
2023-05-05T01:09:45.683Z,25.85
2023-05-05T01:10:45.696Z,25.94
2023-05-05T01:11:45.674Z,25.90
2023-05-05T01:12:45.716Z,25.92
2023-05-05T01:13:45.696Z,25.81
2023-05-05T01:14:45.712Z,25.86
2023-05-05T01:15:45.695Z,25.85
2023-05-05T01:16:45.681Z,25.88
2023-05-05T01:17:45.690Z,25.79
2023-05-05T01:18:45.676Z,25.82
2023-05-05T01:19:45.669Z,25.81
2023-05-05T01:20:45.675Z,25.82
2023-05-05T01:21:45.665Z,25.82
2023-05-05T01:22:45.665Z,25.79
2023-05-05T01:23:45.711Z,25.79
2023-05-05T01:24:45.737Z,25.84
2023-05-05T01:25:45.724Z,25.80
2023-05-05T01:26:45.719Z,25.77
2023-05-05T01:27:45.726Z,25.77
2023-05-05T01:28:45.709Z,25.72
2023-05-05T01:29:45.710Z,25.76
2023-05-05T01:30:45.695Z,25.80
2023-05-05T01:31:45.740Z,25.73
2023-05-05T01:32:45.833Z,25.77
2023-05-05T01:33:45.710Z,25.76
2023-05-05T01:34:45.703Z,25.71
2023-05-05T01:35:45.787Z,25.79
2023-05-05T01:36:45.724Z,25.79
2023-05-05T01:37:45.716Z,25.77
2023-05-05T01:38:45.742Z,25.76
2023-05-05T01:39:45.747Z,25.72
2023-05-05T01:40:45.768Z,25.76
2023-05-05T01:41:45.733Z,25.80
2023-05-05T01:42:45.754Z,25.76
2023-05-05T01:43:45.774Z,25.74
2023-05-05T01:44:45.800Z,25.79
2023-05-05T01:45:45.879Z,25.80
2023-05-05T01:46:45.833Z,25.74
2023-05-05T01:47:45.902Z,25.76
2023-05-05T01:48:45.865Z,25.84
2023-05-05T01:49:45.869Z,25.78
2023-05-05T01:50:45.900Z,25.78
2023-05-05T01:51:45.907Z,25.76
2023-05-05T01:52:45.926Z,25.81
2023-05-05T01:53:45.934Z,25.84
2023-05-05T01:54:45.937Z,25.83
2023-05-05T01:55:46.005Z,25.83
2023-05-05T01:56:45.982Z,25.87
2023-05-05T01:57:45.999Z,25.82
2023-05-05T01:58:46.057Z,25.79
2023-05-05T01:59:46.085Z,25.84
2023-05-05T02:00:46.100Z,25.82
2023-05-05T02:01:46.135Z,25.83
2023-05-05T02:02:46.204Z,25.82
2023-05-05T02:03:46.154Z,25.80
2023-05-05T02:04:46.217Z,25.82
2023-05-05T02:05:46.264Z,25.79
2023-05-05T02:06:46.274Z,25.76
2023-05-05T02:07:46.291Z,25.76
2023-05-05T02:08:46.305Z,25.76
2023-05-05T02:09:46.343Z,25.76
2023-05-05T02:10:46.376Z,25.82
2023-05-05T02:11:46.401Z,25.75
2023-05-05T02:12:46.441Z,25.75
2023-05-05T02:13:46.476Z,25.77
2023-05-05T02:14:46.445Z,25.75
2023-05-05T02:15:46.505Z,25.73
2023-05-05T02:16:46.458Z,25.78
2023-05-05T02:17:46.498Z,25.75
2023-05-05T02:18:46.480Z,25.81
2023-05-05T02:19:46.480Z,25.78
2023-05-05T02:20:46.530Z,25.78
2023-05-05T02:21:46.542Z,25.78
2023-05-05T02:22:46.612Z,25.81
2023-05-05T02:23:46.619Z,25.71
2023-05-05T02:24:46.617Z,25.74
2023-05-05T02:25:46.659Z,25.78
2023-05-05T02:26:46.683Z,25.75
2023-05-05T02:27:46.735Z,25.74
2023-05-05T02:28:46.738Z,25.76
2023-05-05T02:29:46.740Z,25.69
2023-05-05T02:30:46.837Z,25.74
2023-05-05T02:31:46.928Z,25.71
2023-05-05T02:32:46.921Z,25.74
2023-05-05T02:33:46.906Z,25.75
2023-05-05T02:34:46.920Z,25.77
2023-05-05T02:35:46.962Z,25.71
2023-05-05T02:36:47.033Z,25.75
2023-05-05T02:37:47.027Z,25.75
2023-05-05T02:38:47.054Z,25.71
2023-05-05T02:39:47.093Z,25.73
2023-05-05T02:40:47.119Z,25.71
2023-05-05T02:41:47.161Z,25.69
2023-05-05T02:42:47.205Z,25.69
2023-05-05T02:43:47.237Z,25.72
2023-05-05T02:44:47.262Z,25.74
2023-05-05T02:45:47.287Z,25.70
2023-05-05T02:46:47.382Z,25.74
2023-05-05T02:47:47.361Z,25.67
2023-05-05T02:48:47.345Z,25.69
2023-05-05T02:49:47.360Z,25.67
2023-05-05T02:50:47.401Z,25.66
2023-05-05T02:51:47.402Z,25.65
2023-05-05T02:52:47.457Z,25.63
2023-05-05T02:53:47.482Z,25.69
2023-05-05T02:54:47.494Z,25.66
2023-05-05T02:55:47.538Z,25.70
2023-05-05T02:56:47.574Z,25.69
2023-05-05T02:57:47.592Z,25.66
2023-05-05T02:58:47.666Z,25.63
2023-05-05T02:59:47.662Z,25.69
2023-05-05T03:00:47.697Z,25.63
2023-05-05T03:01:47.829Z,25.65
2023-05-05T03:02:47.973Z,25.61
2023-05-05T03:03:48.057Z,25.62
2023-05-05T03:04:47.896Z,25.65
2023-05-05T03:05:47.921Z,25.68
2023-05-05T03:06:47.964Z,25.66
2023-05-05T03:07:47.999Z,25.65
2023-05-05T03:08:48.033Z,25.63
2023-05-05T03:09:48.077Z,25.67
2023-05-05T03:10:48.143Z,25.65
2023-05-05T03:11:48.285Z,25.61
2023-05-05T03:12:48.301Z,25.62
2023-05-05T03:13:48.281Z,25.66
2023-05-05T03:14:48.322Z,25.65
2023-05-05T03:15:48.390Z,25.66
2023-05-05T03:16:48.370Z,25.61
2023-05-05T03:17:48.422Z,25.65
2023-05-05T03:18:48.460Z,25.63
2023-05-05T03:19:48.466Z,25.57
2023-05-05T03:20:48.564Z,25.57
2023-05-05T03:21:48.569Z,25.60
2023-05-05T03:22:48.603Z,25.61
2023-05-05T03:23:48.670Z,25.58
2023-05-05T03:24:48.706Z,25.58
2023-05-05T03:25:48.793Z,25.55
2023-05-05T03:26:48.830Z,25.58
2023-05-05T03:27:48.903Z,25.58
2023-05-05T03:28:48.951Z,25.61
2023-05-05T03:29:48.996Z,25.55
2023-05-05T03:30:49.071Z,25.58
2023-05-05T03:31:49.134Z,25.61
2023-05-05T03:32:49.162Z,25.60
2023-05-05T03:33:49.183Z,25.56
2023-05-05T03:34:49.208Z,25.58
2023-05-05T03:35:49.313Z,25.56
2023-05-05T03:36:49.326Z,25.60
2023-05-05T03:37:49.370Z,25.62
2023-05-05T03:38:49.397Z,25.60
2023-05-05T03:39:49.432Z,25.61
2023-05-05T03:40:49.540Z,25.54
2023-05-05T03:41:49.550Z,25.57
2023-05-05T03:42:49.603Z,25.58
2023-05-05T03:43:49.611Z,25.61
2023-05-05T03:44:49.669Z,25.60
2023-05-05T03:45:49.711Z,25.61
2023-05-05T03:46:49.703Z,25.63
2023-05-05T03:47:49.804Z,25.60
2023-05-05T03:48:49.771Z,25.57
2023-05-05T03:49:49.824Z,25.58
2023-05-05T03:50:49.869Z,25.62
2023-05-05T03:51:49.904Z,25.61
2023-05-05T03:52:49.932Z,25.63
2023-05-05T03:53:49.963Z,25.63
2023-05-05T03:54:49.979Z,25.61
2023-05-05T03:55:50.023Z,25.61
2023-05-05T03:56:50.071Z,25.60
2023-05-05T03:57:50.125Z,25.60
2023-05-05T03:58:50.122Z,25.61
2023-05-05T03:59:50.180Z,25.57
2023-05-05T04:00:50.196Z,25.60
2023-05-05T04:01:50.217Z,25.60
2023-05-05T04:02:50.329Z,25.62
2023-05-05T04:03:50.302Z,25.60
2023-05-05T04:04:50.300Z,25.58
2023-05-05T04:05:50.334Z,25.62
2023-05-05T04:06:50.346Z,25.62
2023-05-05T04:07:50.370Z,25.61
2023-05-05T04:08:50.377Z,25.64
2023-05-05T04:09:50.383Z,25.65
2023-05-05T04:10:50.412Z,25.63
2023-05-05T04:11:50.408Z,25.63
2023-05-05T04:12:50.459Z,25.65
2023-05-05T04:13:50.472Z,25.64
2023-05-05T04:14:50.519Z,25.60
2023-05-05T04:15:50.549Z,25.61
2023-05-05T04:16:50.575Z,25.61
2023-05-05T04:17:50.694Z,25.57
2023-05-05T04:18:50.626Z,25.58
2023-05-05T04:19:50.648Z,25.65
2023-05-05T04:20:50.665Z,25.65
2023-05-05T04:21:50.704Z,25.58
2023-05-05T04:22:52.657Z,25.58
2023-05-05T04:23:50.757Z,25.58
2023-05-05T04:24:50.757Z,25.62
2023-05-05T04:25:50.780Z,25.61
2023-05-05T04:26:50.810Z,25.57
2023-05-05T04:27:50.840Z,25.57
2023-05-05T04:28:50.847Z,25.60
2023-05-05T04:29:50.866Z,25.55
2023-05-05T04:30:50.890Z,25.60
2023-05-05T04:31:50.937Z,25.62
2023-05-05T04:32:51.020Z,25.57
2023-05-05T04:33:50.977Z,25.58
2023-05-05T04:34:51.019Z,25.58
2023-05-05T04:35:51.032Z,25.57
2023-05-05T04:36:51.090Z,25.54
2023-05-05T04:37:51.121Z,25.58
2023-05-05T04:38:51.201Z,25.57
2023-05-05T04:39:51.178Z,25.61
2023-05-05T04:40:51.216Z,25.55
2023-05-05T04:41:51.234Z,25.61
2023-05-05T04:42:51.280Z,25.57
2023-05-05T04:43:51.282Z,25.62
2023-05-05T04:44:51.309Z,25.58
2023-05-05T04:45:51.354Z,25.60
2023-05-05T04:46:51.403Z,25.64
2023-05-05T04:47:51.524Z,25.58
2023-05-05T04:48:51.431Z,25.62
2023-05-05T04:49:51.496Z,25.63
2023-05-05T04:50:51.503Z,25.63
2023-05-05T04:51:51.560Z,25.62
2023-05-05T04:52:52.666Z,25.65
2023-05-05T04:53:51.637Z,25.65
2023-05-05T04:54:51.702Z,25.64
2023-05-05T04:55:51.743Z,25.65
2023-05-05T04:56:51.768Z,25.62
2023-05-05T04:57:51.868Z,25.68
2023-05-05T04:58:51.843Z,25.68
2023-05-05T04:59:51.878Z,25.69
2023-05-05T05:00:51.919Z,25.63
2023-05-05T05:01:52.011Z,25.60
2023-05-05T05:02:52.102Z,25.56
2023-05-05T05:03:52.208Z,25.52
2023-05-05T05:04:52.167Z,25.50
2023-05-05T05:05:52.223Z,25.49
2023-05-05T05:06:52.269Z,25.47
2023-05-05T05:07:52.351Z,25.46
2023-05-05T05:08:52.391Z,25.47
2023-05-05T05:09:52.466Z,25.44
2023-05-05T05:10:52.552Z,25.40
2023-05-05T05:11:52.599Z,25.40
2023-05-05T05:12:52.717Z,25.40
2023-05-05T05:13:52.715Z,25.37
2023-05-05T05:14:52.776Z,25.35
2023-05-05T05:15:52.826Z,25.32
2023-05-05T05:16:53.012Z,25.28
2023-05-05T05:17:52.986Z,25.27
2023-05-05T05:18:53.001Z,25.35
2023-05-05T05:19:53.029Z,25.25
2023-05-05T05:20:53.077Z,25.25
2023-05-05T05:21:53.132Z,25.31
2023-05-05T05:22:53.180Z,25.29
2023-05-05T05:23:53.251Z,25.26
2023-05-05T05:24:53.280Z,25.30
2023-05-05T05:25:53.345Z,25.26
2023-05-05T05:26:53.388Z,25.24
2023-05-05T05:28:06.094Z,25.25
2023-05-05T05:28:54.454Z,25.22
2023-05-05T05:29:53.457Z,25.21
2023-05-05T05:30:53.444Z,25.21
2023-05-05T05:31:53.440Z,25.76
2023-05-05T05:32:53.440Z,26.42
2023-05-05T05:33:53.405Z,26.82
2023-05-05T05:34:53.408Z,27.07
2023-05-05T05:35:53.385Z,27.43
2023-05-05T05:36:53.383Z,27.85
2023-05-05T05:37:53.370Z,28.19
2023-05-05T05:38:53.754Z,28.34
2023-05-05T05:39:53.364Z,29.10
2023-05-05T05:40:53.354Z,29.41
2023-05-05T05:41:53.348Z,29.50
2023-05-05T05:42:53.359Z,29.39
2023-05-05T05:43:53.334Z,29.17
2023-05-05T05:44:53.340Z,28.88
2023-05-05T05:45:53.376Z,28.66
2023-05-05T05:46:53.381Z,28.61
2023-05-05T05:47:53.446Z,28.61
2023-05-05T05:48:53.397Z,28.47
2023-05-05T05:49:53.388Z,28.34
2023-05-05T05:50:53.441Z,28.25
2023-05-05T05:51:53.416Z,28.05
2023-05-05T05:52:53.389Z,27.90
2023-05-05T05:53:53.415Z,27.78
2023-05-05T05:54:53.428Z,27.61
2023-05-05T05:55:53.475Z,28.26
2023-05-05T05:56:53.537Z,28.10
2023-05-05T05:57:53.581Z,28.34
2023-05-05T05:58:53.653Z,28.07
2023-05-05T05:59:53.690Z,27.78
2023-05-05T06:00:53.754Z,27.60
2023-05-05T06:01:53.792Z,27.49
2023-05-05T06:02:53.930Z,27.56
2023-05-05T06:03:54.379Z,27.49
2023-05-05T06:04:53.882Z,27.34
2023-05-05T06:05:53.915Z,27.37
2023-05-05T06:06:53.947Z,27.13
2023-05-05T06:07:54.048Z,27.14
2023-05-05T06:08:54.027Z,27.18
2023-05-05T06:09:54.068Z,27.10
2023-05-05T06:10:54.076Z,26.90
2023-05-05T06:11:54.112Z,27.03
2023-05-05T06:12:54.191Z,26.99
2023-05-05T06:13:54.167Z,27.05
2023-05-05T06:14:54.178Z,26.99
2023-05-05T06:15:54.237Z,26.93
2023-05-05T06:16:54.193Z,27.04
2023-05-05T06:17:54.248Z,27.00
2023-05-05T06:18:54.309Z,26.98
2023-05-05T06:19:54.608Z,27.01
2023-05-05T06:20:54.253Z,26.94
2023-05-05T06:21:54.269Z,27.04
2023-05-05T06:22:54.273Z,27.04
2023-05-05T06:23:54.276Z,27.04
2023-05-05T06:24:54.285Z,27.01
2023-05-05T06:25:54.276Z,26.91
2023-05-05T06:26:54.271Z,26.91
2023-05-05T06:27:54.280Z,26.87
2023-05-05T06:28:54.332Z,26.87
2023-05-05T06:29:54.277Z,26.82
2023-05-05T06:30:54.294Z,26.95
2023-05-05T06:31:54.309Z,26.93
2023-05-05T06:32:54.394Z,26.66
2023-05-05T06:33:54.296Z,26.87
2023-05-05T06:34:54.311Z,26.87
2023-05-05T06:35:54.344Z,26.96
2023-05-05T06:36:54.472Z,26.91
2023-05-05T06:37:54.399Z,26.86
2023-05-05T06:38:54.427Z,27.02
2023-05-05T06:39:54.452Z,26.98
2023-05-05T06:40:54.482Z,26.93
2023-05-05T06:41:54.505Z,26.88
2023-05-05T06:42:54.529Z,26.84
2023-05-05T06:43:54.786Z,26.80
2023-05-05T06:44:54.571Z,26.87
2023-05-05T06:45:54.595Z,26.88
2023-05-05T06:46:54.802Z,26.95
2023-05-05T06:47:54.610Z,26.90
2023-05-05T06:48:54.591Z,26.76
2023-05-05T06:49:54.610Z,26.56
2023-05-05T06:50:54.654Z,26.53
2023-05-05T06:51:54.720Z,26.34
2023-05-05T06:52:54.759Z,26.32
2023-05-05T06:53:55.290Z,26.36
2023-05-05T06:54:54.800Z,26.28
2023-05-05T06:55:55.006Z,26.28
2023-05-05T06:56:54.833Z,26.34
2023-05-05T06:57:54.826Z,26.37
2023-05-05T06:58:54.852Z,26.29
2023-05-05T06:59:54.850Z,26.38
2023-05-05T07:00:54.982Z,26.41
2023-05-05T07:01:54.874Z,26.38
2023-05-05T07:02:54.918Z,26.49
2023-05-05T07:03:54.949Z,27.40
2023-05-05T07:04:54.964Z,27.15
2023-05-05T07:05:55.024Z,27.24
2023-05-05T07:06:55.068Z,27.33
2023-05-05T07:07:55.116Z,27.31
2023-05-05T07:08:55.407Z,27.40
2023-05-05T07:09:55.086Z,27.38
2023-05-05T07:10:55.116Z,27.28
2023-05-05T07:11:55.353Z,27.28
2023-05-05T07:12:55.267Z,27.17
2023-05-05T07:13:55.282Z,27.09
2023-05-05T07:14:55.323Z,27.06
2023-05-05T07:15:55.313Z,27.01
2023-05-05T07:16:55.455Z,26.95
2023-05-05T07:17:55.476Z,26.93
2023-05-05T07:18:55.417Z,26.93
2023-05-05T07:19:55.409Z,26.87
2023-05-05T07:20:55.422Z,26.82
2023-05-05T07:21:55.451Z,26.72
2023-05-05T07:22:55.468Z,26.79
2023-05-05T07:23:55.454Z,26.74
2023-05-05T07:24:55.472Z,26.69
2023-05-05T07:25:55.458Z,26.64
2023-05-05T07:26:55.455Z,27.29
2023-05-05T07:27:55.666Z,27.06
2023-05-05T07:29:23.149Z,27.01
2023-05-05T07:30:23.219Z,26.77
2023-05-05T07:31:22.963Z,26.80
2023-05-05T07:32:23.224Z,26.87
2023-05-05T07:33:22.931Z,27.01
2023-05-05T07:34:22.944Z,27.12
2023-05-05T07:35:22.919Z,27.23
2023-05-05T07:36:22.918Z,27.29
2023-05-05T07:37:23.002Z,27.24
2023-05-05T07:38:22.896Z,27.14
2023-05-05T07:39:22.909Z,27.28
2023-05-05T07:40:22.905Z,27.27
2023-05-05T07:41:22.887Z,27.24
2023-05-05T07:42:22.900Z,27.24
2023-05-05T07:43:22.926Z,27.31
2023-05-05T07:44:22.876Z,27.31
2023-05-05T07:45:22.878Z,27.37
2023-05-05T07:46:22.911Z,27.30
2023-05-05T07:47:22.877Z,27.41
2023-05-05T07:48:22.838Z,27.31
2023-05-05T07:49:23.147Z,27.27
2023-05-05T07:50:22.847Z,27.24
2023-05-05T07:51:22.819Z,27.24
2023-05-05T07:52:33.211Z,27.23
2023-05-05T07:53:23.835Z,27.18
2023-05-05T07:54:23.139Z,27.10
2023-05-05T07:55:22.797Z,27.11
2023-05-05T07:56:22.803Z,27.10
2023-05-05T07:57:22.786Z,27.09
2023-05-05T07:58:22.790Z,27.07
2023-05-05T07:59:23.207Z,27.04
2023-05-05T08:00:22.793Z,27.08
2023-05-05T08:01:22.779Z,27.12
2023-05-05T08:02:22.846Z,27.17
2023-05-05T08:03:22.947Z,27.11
2023-05-05T08:04:22.799Z,27.11
2023-05-05T08:05:22.746Z,27.04
2023-05-05T08:06:22.735Z,27.06
2023-05-05T08:07:22.726Z,27.00
2023-05-05T08:08:22.749Z,27.47
2023-05-05T08:09:23.180Z,27.15
2023-05-05T08:10:22.755Z,27.19
2023-05-05T08:11:22.785Z,27.21
2023-05-05T08:12:22.836Z,27.10
2023-05-05T08:13:22.919Z,27.17
2023-05-05T08:14:22.919Z,27.11
2023-05-05T08:15:22.993Z,27.21
2023-05-05T08:16:22.999Z,27.22
2023-05-05T08:17:23.121Z,27.21
2023-05-05T08:18:22.974Z,27.30
2023-05-05T08:19:29.292Z,27.22
2023-05-05T08:20:24.002Z,27.05
2023-05-05T08:21:22.972Z,27.19
2023-05-05T08:22:22.986Z,27.08
2023-05-05T08:23:22.984Z,27.21
2023-05-05T08:24:23.167Z,26.33
2023-05-05T08:25:22.956Z,26.24
2023-05-05T08:26:22.992Z,26.01
2023-05-05T08:27:22.926Z,26.11
2023-05-05T08:28:22.936Z,25.98
2023-05-05T08:29:22.924Z,25.64
2023-05-05T08:30:22.906Z,25.92
2023-05-05T08:31:23.034Z,26.05
2023-05-05T08:32:22.964Z,26.29
2023-05-05T08:33:23.032Z,26.10
2023-05-05T08:34:23.088Z,26.37
2023-05-05T08:35:23.140Z,26.46
2023-05-05T08:36:23.188Z,26.47
2023-05-05T08:37:23.246Z,26.56
2023-05-05T08:38:23.291Z,26.66
2023-05-05T08:39:23.329Z,26.64
2023-05-05T08:40:23.438Z,26.61
2023-05-05T08:41:23.418Z,26.69
2023-05-05T08:42:36.112Z,26.71
2023-05-05T08:43:24.454Z,26.77
2023-05-05T08:44:23.452Z,26.82
2023-05-05T08:45:23.460Z,26.76
2023-05-05T08:46:23.463Z,27.00
2023-05-05T08:47:23.822Z,26.87
2023-05-05T08:48:23.421Z,27.07
2023-05-05T08:49:23.430Z,27.13
2023-05-05T08:50:23.422Z,27.01
2023-05-05T08:51:23.403Z,27.01
2023-05-05T08:52:23.471Z,27.04
2023-05-05T08:53:23.402Z,27.21
2023-05-05T08:54:23.712Z,27.14
2023-05-05T08:55:23.376Z,26.93
2023-05-05T08:56:23.364Z,26.98
2023-05-05T08:57:23.381Z,27.03
2023-05-05T08:58:23.387Z,26.95
2023-05-05T08:59:23.373Z,26.99
2023-05-05T09:00:23.414Z,27.12
2023-05-05T09:01:23.412Z,27.05
2023-05-05T09:02:23.388Z,27.02
2023-05-05T09:03:23.509Z,26.96
2023-05-05T09:04:23.477Z,27.02
2023-05-05T09:05:23.315Z,26.96
2023-05-05T09:06:23.332Z,26.94
2023-05-05T09:07:23.348Z,26.88
2023-05-05T09:08:23.355Z,26.96
2023-05-05T09:09:23.348Z,27.01
2023-05-05T09:10:23.370Z,27.16
2023-05-05T09:11:23.376Z,27.20
2023-05-05T09:12:23.389Z,27.45
2023-05-05T09:13:23.390Z,27.59
2023-05-05T09:14:23.406Z,27.58
2023-05-05T09:15:23.381Z,27.15
2023-05-05T09:16:23.423Z,27.10
2023-05-05T09:17:23.413Z,27.00
2023-05-05T09:18:23.381Z,27.17
2023-05-05T09:19:23.458Z,27.17
2023-05-05T09:20:23.392Z,27.00
2023-05-05T09:21:23.380Z,26.95
2023-05-05T09:22:23.414Z,26.97
2023-05-05T09:23:23.419Z,27.08
2023-05-05T09:24:23.481Z,27.08
2023-05-05T09:25:23.501Z,27.13
2023-05-05T09:26:23.510Z,26.88
2023-05-05T09:27:23.552Z,27.11
2023-05-05T09:28:23.524Z,27.31
2023-05-05T09:29:23.522Z,27.17
2023-05-05T09:30:23.543Z,27.17
2023-05-05T09:31:23.616Z,26.82
2023-05-05T09:32:23.712Z,26.62
2023-05-05T09:33:23.696Z,26.61
2023-05-05T09:34:23.640Z,26.55
2023-05-05T09:35:23.734Z,26.32
2023-05-05T09:36:23.694Z,26.46
2023-05-05T09:37:23.715Z,26.67
2023-05-05T09:38:24.224Z,26.81
2023-05-05T09:39:23.785Z,27.04
2023-05-05T09:40:23.801Z,27.17
2023-05-05T09:41:23.842Z,27.26
2023-05-05T09:42:23.863Z,27.28
2023-05-05T09:43:23.895Z,27.44
2023-05-05T09:44:23.903Z,27.54
2023-05-05T09:45:23.930Z,27.52
2023-05-05T09:46:23.980Z,27.56
2023-05-05T09:47:29.860Z,27.49
2023-05-05T09:48:24.988Z,27.52
2023-05-05T09:49:23.960Z,27.61
2023-05-05T09:50:23.957Z,27.63
2023-05-05T09:51:24.003Z,27.64
2023-05-05T09:52:23.931Z,27.76
2023-05-05T09:53:23.934Z,27.80
2023-05-05T09:54:23.932Z,27.95
2023-05-05T09:55:23.909Z,27.92
2023-05-05T09:56:23.907Z,27.95
2023-05-05T09:57:23.903Z,27.95
2023-05-05T09:58:24.014Z,27.91
2023-05-05T09:59:23.903Z,27.82
2023-05-05T10:00:23.886Z,27.69
2023-05-05T10:01:23.957Z,27.71
2023-05-05T10:02:23.874Z,27.56
2023-05-05T10:03:23.864Z,27.47
2023-05-05T10:04:24.255Z,27.48
2023-05-05T10:05:23.876Z,27.32
2023-05-05T10:06:23.840Z,27.08
2023-05-05T10:07:23.909Z,27.07
2023-05-05T10:08:23.838Z,27.04
2023-05-05T10:09:23.894Z,26.98
2023-05-05T10:10:23.824Z,27.07
2023-05-05T10:11:23.806Z,27.06
2023-05-05T10:12:23.800Z,27.10
2023-05-05T10:13:23.833Z,27.10
2023-05-05T10:14:23.858Z,27.08
2023-05-05T10:15:23.799Z,27.00
2023-05-05T10:16:23.825Z,27.00
2023-05-05T10:17:23.790Z,26.88
2023-05-05T10:18:23.826Z,26.87
2023-05-05T10:19:23.822Z,26.75
2023-05-05T10:20:23.764Z,26.76
2023-05-05T10:21:23.773Z,26.68
2023-05-05T10:22:23.749Z,26.30
2023-05-05T10:23:23.824Z,26.21
2023-05-05T10:24:24.216Z,26.07
2023-05-05T10:25:23.769Z,26.03
2023-05-05T10:26:23.768Z,25.86
2023-05-05T10:27:23.791Z,26.02
2023-05-05T10:28:23.820Z,26.03
2023-05-05T10:29:23.855Z,26.16
2023-05-05T10:30:23.840Z,26.36
2023-05-05T10:31:26.560Z,26.48
2023-05-05T10:32:50.966Z,26.71
2023-05-05T10:33:30.768Z,26.72
2023-05-05T10:34:24.896Z,26.75
2023-05-05T10:35:23.831Z,26.86
2023-05-05T10:36:24.720Z,26.94
2023-05-05T10:37:23.808Z,26.95
2023-05-05T10:38:25.541Z,27.10
2023-05-05T10:39:23.876Z,27.07
2023-05-05T10:40:23.789Z,27.16
2023-05-05T10:41:23.816Z,27.24
2023-05-05T10:42:23.788Z,27.32
2023-05-05T10:43:23.811Z,27.40
2023-05-05T10:44:23.817Z,27.44
2023-05-05T10:45:23.821Z,27.40
2023-05-05T10:46:23.838Z,27.46
2023-05-05T10:47:23.801Z,27.48
2023-05-05T10:48:23.783Z,27.48
2023-05-05T10:49:23.778Z,27.41
2023-05-05T10:50:23.737Z,27.36
2023-05-05T10:51:35.113Z,27.37
2023-05-05T10:52:24.735Z,27.24
2023-05-05T10:53:23.726Z,27.25
2023-05-05T10:54:23.818Z,27.28
2023-05-05T10:55:23.702Z,27.21
2023-05-05T10:56:23.696Z,27.22
2023-05-05T10:57:23.716Z,27.18
2023-05-05T10:58:23.697Z,27.10
2023-05-05T10:59:23.674Z,27.14
2023-05-05T11:00:23.678Z,27.22
2023-05-05T11:01:23.695Z,27.26
2023-05-05T11:02:23.765Z,27.14
2023-05-05T11:03:23.744Z,27.18
2023-05-05T11:04:23.649Z,27.13
2023-05-05T11:05:23.637Z,27.12
2023-05-05T11:06:23.642Z,27.17
2023-05-05T11:07:23.636Z,27.05
2023-05-05T11:08:23.614Z,27.09
2023-05-05T11:09:23.627Z,26.98
2023-05-05T11:10:23.666Z,26.93
2023-05-05T11:11:23.753Z,26.84
2023-05-05T11:12:23.611Z,26.81
2023-05-05T11:13:23.724Z,26.77
2023-05-05T11:14:23.605Z,26.82
2023-05-05T11:15:23.764Z,26.76
2023-05-05T11:16:23.644Z,26.68
2023-05-05T11:17:23.574Z,26.59
2023-05-05T11:18:23.570Z,26.27
2023-05-05T11:19:23.553Z,26.40
2023-05-05T11:20:23.734Z,26.11
2023-05-05T11:21:23.574Z,26.42
2023-05-05T11:22:23.544Z,26.31
2023-05-05T11:23:23.529Z,26.39
2023-05-05T11:24:23.545Z,26.33
2023-05-05T11:25:23.552Z,26.36
2023-05-05T11:26:23.583Z,26.29
2023-05-05T11:27:23.788Z,26.20
2023-05-05T11:28:23.664Z,26.23
2023-05-05T11:29:23.688Z,26.43
2023-05-05T11:30:23.703Z,26.38
2023-05-05T11:31:23.767Z,26.56
2023-05-05T11:32:23.817Z,26.49
2023-05-05T11:33:23.839Z,26.48
2023-05-05T11:34:23.875Z,26.43
2023-05-05T11:35:23.949Z,26.37
2023-05-05T11:36:24.000Z,26.41
2023-05-05T11:37:24.014Z,26.33
2023-05-05T11:38:24.063Z,26.56
2023-05-05T11:39:24.108Z,26.66
2023-05-05T11:40:24.150Z,26.68
2023-05-05T11:41:24.204Z,26.72
2023-05-05T11:42:24.255Z,26.64
2023-05-05T11:43:24.406Z,26.68
2023-05-05T11:44:24.335Z,26.62
2023-05-05T11:45:24.399Z,26.65
2023-05-05T11:46:24.469Z,26.69
2023-05-05T11:47:24.456Z,26.73
2023-05-05T11:48:24.483Z,26.71
2023-05-05T11:49:24.534Z,26.66
2023-05-05T11:50:24.588Z,26.60
2023-05-05T11:51:24.617Z,26.55
2023-05-05T11:52:24.657Z,26.49
2023-05-05T11:53:24.689Z,26.50
2023-05-05T11:54:24.745Z,26.46
2023-05-05T11:55:24.789Z,26.45
2023-05-05T11:56:24.821Z,26.45
2023-05-05T11:57:24.858Z,26.44
2023-05-05T11:58:24.923Z,26.40
2023-05-05T11:59:25.048Z,26.34
2023-05-05T12:00:24.999Z,26.32
2023-05-05T12:01:25.044Z,26.34
2023-05-05T12:02:25.191Z,26.35
2023-05-05T12:03:25.315Z,26.33
2023-05-05T12:04:25.206Z,26.34
2023-05-05T12:05:25.231Z,26.30
2023-05-05T12:06:25.297Z,26.28
2023-05-05T12:07:25.319Z,26.29
2023-05-05T12:08:25.363Z,26.28
2023-05-05T12:09:25.406Z,26.23
2023-05-05T12:10:25.426Z,26.29
2023-05-05T12:11:25.430Z,26.27
2023-05-05T12:12:25.426Z,26.19
2023-05-05T12:13:25.482Z,26.20
2023-05-05T12:14:25.446Z,26.17
2023-05-05T12:15:25.456Z,26.15
2023-05-05T12:16:25.491Z,26.15
2023-05-05T12:17:25.486Z,26.11
2023-05-05T12:18:25.483Z,26.12
2023-05-05T12:19:25.494Z,26.15
2023-05-05T12:20:25.521Z,26.08
2023-05-05T12:21:25.564Z,26.04
2023-05-05T12:22:25.657Z,26.07
2023-05-05T12:23:25.673Z,26.05
2023-05-05T12:24:25.716Z,26.07
2023-05-05T12:25:25.778Z,25.98
2023-05-05T12:26:25.843Z,25.95
2023-05-05T12:27:25.925Z,25.98
2023-05-05T12:28:25.960Z,25.92
2023-05-05T12:29:25.995Z,25.94
2023-05-05T12:30:26.103Z,26.00
2023-05-05T12:31:26.250Z,25.95
2023-05-05T12:32:26.200Z,25.90
2023-05-05T12:33:26.229Z,25.88
2023-05-05T12:34:26.273Z,25.87
2023-05-05T12:35:26.365Z,25.95
2023-05-05T12:36:27.243Z,25.87
2023-05-05T12:37:26.443Z,25.84
2023-05-05T12:38:26.473Z,25.76
2023-05-05T12:39:26.520Z,25.79
2023-05-05T12:40:26.565Z,25.75
2023-05-05T12:41:26.627Z,25.83
2023-05-05T12:42:26.677Z,25.60
2023-05-05T12:43:26.713Z,25.75
2023-05-05T12:44:26.769Z,25.70
2023-05-05T12:45:26.819Z,25.75
2023-05-05T12:46:26.873Z,25.74
2023-05-05T12:47:27.034Z,25.79
2023-05-05T12:48:26.955Z,25.80
2023-05-05T12:49:26.988Z,25.77
2023-05-05T12:50:27.041Z,25.81
2023-05-05T12:51:27.075Z,25.79
2023-05-05T12:52:27.095Z,25.83
2023-05-05T12:53:27.135Z,25.89